createdAt,value
2022-11-10T00:00:50.224Z,11.32
2022-11-10T00:03:37.598Z,10.73
2022-11-10T00:06:23.601Z,10.61
2022-11-10T00:09:10.529Z,10.31
2022-11-10T00:11:56.864Z,9.89
2022-11-10T00:15:01.599Z,9.86
2022-11-10T00:17:47.480Z,10.13
2022-11-10T00:20:33.610Z,10.08
2022-11-10T00:23:19.625Z,10.23
2022-11-10T00:26:15.142Z,10.12
2022-11-10T00:29:00.992Z,10.04
2022-11-10T00:31:47.248Z,10.32
2022-11-10T00:34:33.083Z,10.34
2022-11-10T00:37:19.013Z,10.33
2022-11-10T00:40:05.041Z,10.04
2022-11-10T00:42:51.398Z,10.04
2022-11-10T00:45:37.652Z,10.13
2022-11-10T00:48:23.754Z,10.04
2022-11-10T00:51:24.510Z,9.89
2022-11-10T00:54:10.426Z,9.97
2022-11-10T00:56:56.309Z,10.06
2022-11-10T00:59:41.732Z,10.06
2022-11-10T01:02:29.289Z,9.92
2022-11-10T01:05:15.796Z,9.97
2022-11-10T01:08:01.589Z,9.79
2022-11-10T01:10:47.273Z,9.95
2022-11-10T01:13:34.396Z,9.80
2022-11-10T01:16:23.466Z,9.77
2022-11-10T01:19:09.767Z,9.42
2022-11-10T01:21:56.404Z,9.22
2022-11-10T01:24:43.040Z,9.31
2022-11-10T01:27:29.619Z,9.12
2022-11-10T01:30:16.066Z,9.49
2022-11-10T01:33:02.244Z,9.39
2022-11-10T01:35:48.474Z,9.47
2022-11-10T01:38:36.997Z,9.60
2022-11-10T01:41:22.949Z,9.59
2022-11-10T01:44:21.527Z,9.51
2022-11-10T01:47:07.948Z,9.49
2022-11-10T01:49:55.291Z,9.42
2022-11-10T01:52:44.459Z,9.17
2022-11-10T01:55:32.821Z,9.36
2022-11-10T01:58:30.914Z,9.33
2022-11-10T02:01:17.168Z,9.44
2022-11-10T02:04:07.762Z,9.32
2022-11-10T02:06:54.942Z,8.87
2022-11-10T02:09:41.729Z,8.87
2022-11-10T02:12:40.244Z,8.80
2022-11-10T02:15:27.155Z,8.92
2022-11-10T02:18:13.612Z,9.16
2022-11-10T02:21:00.494Z,8.95
2022-11-10T02:23:51.218Z,9.04
2022-11-10T02:26:45.874Z,9.11
2022-11-10T02:29:32.070Z,8.91
2022-11-10T02:32:18.771Z,9.20
2022-11-10T02:35:05.887Z,8.96
2022-11-10T02:37:52.842Z,8.90
2022-11-10T02:40:40.573Z,8.90
2022-11-10T02:43:27.281Z,9.19
2022-11-10T02:46:13.509Z,9.12
2022-11-10T02:48:59.570Z,9.14
2022-11-10T02:51:45.720Z,9.12
2022-11-10T02:54:31.914Z,9.21
2022-11-10T02:57:18.649Z,8.78
2022-11-10T03:00:07.095Z,8.93
2022-11-10T03:03:05.198Z,9.05
2022-11-10T03:05:51.605Z,8.94
2022-11-10T03:08:39.197Z,9.07
2022-11-10T03:11:30.860Z,9.07
2022-11-10T03:14:18.533Z,8.85
2022-11-10T03:17:04.772Z,9.08
2022-11-10T03:19:51.313Z,8.83
2022-11-10T03:22:38.668Z,8.82
2022-11-10T03:25:25.381Z,8.94
2022-11-10T03:28:12.549Z,9.11
2022-11-10T03:30:59.210Z,9.05
2022-11-10T03:33:45.844Z,9.01
2022-11-10T03:36:32.315Z,8.99
2022-11-10T03:39:18.732Z,8.87
2022-11-10T03:42:05.344Z,8.91
2022-11-10T03:44:51.908Z,9.01
2022-11-10T03:47:38.331Z,8.74
2022-11-10T03:50:24.929Z,8.90
2022-11-10T03:53:11.789Z,8.19
2022-11-10T03:56:01.576Z,8.68
2022-11-10T03:58:48.170Z,8.72
2022-11-10T04:01:34.692Z,8.59
2022-11-10T04:04:41.206Z,8.48
2022-11-10T04:07:48.006Z,8.77
2022-11-10T04:10:36.705Z,8.76
2022-11-10T04:13:42.845Z,8.77
2022-11-10T04:16:28.957Z,8.70
2022-11-10T04:19:15.952Z,8.79
2022-11-10T04:22:02.702Z,8.74
2022-11-10T04:24:49.021Z,8.81
2022-11-10T04:27:35.289Z,8.79
2022-11-10T04:30:21.014Z,8.79
2022-11-10T04:33:07.565Z,8.55
2022-11-10T04:35:54.761Z,8.77
2022-11-10T04:38:41.306Z,8.72
2022-11-10T04:41:30.475Z,8.48
2022-11-10T04:44:17.190Z,8.44
2022-11-10T04:47:06.415Z,8.64
2022-11-10T04:49:55.723Z,8.61
2022-11-10T04:52:41.883Z,8.67
2022-11-10T04:55:28.552Z,8.66
2022-11-10T04:58:15.202Z,8.65
2022-11-10T05:01:02.256Z,8.53
2022-11-10T05:03:51.452Z,8.49
2022-11-10T05:06:38.219Z,8.48
2022-11-10T05:09:24.513Z,8.66
2022-11-10T05:12:11.289Z,8.66
2022-11-10T05:14:57.884Z,8.48
2022-11-10T05:17:47.884Z,8.46
2022-11-10T05:20:34.132Z,8.70
2022-11-10T05:23:39.914Z,8.73
2022-11-10T05:26:26.863Z,8.50
2022-11-10T05:29:13.392Z,8.62
2022-11-10T05:31:59.852Z,8.81
2022-11-10T05:34:46.982Z,8.55
2022-11-10T05:37:33.329Z,8.59
2022-11-10T05:40:19.690Z,8.97
2022-11-10T05:43:06.007Z,9.02
2022-11-10T05:45:52.108Z,8.94
2022-11-10T05:48:37.906Z,9.01
2022-11-10T05:51:24.185Z,9.00
2022-11-10T05:54:10.742Z,8.90
2022-11-10T05:56:57.438Z,9.00
2022-11-10T05:59:44.163Z,8.88
2022-11-10T06:02:31.692Z,8.91
2022-11-10T06:05:18.344Z,8.68
2022-11-10T06:08:06.372Z,8.83
2022-11-10T06:10:52.060Z,8.68
2022-11-10T06:13:38.117Z,8.92
2022-11-10T06:16:24.453Z,8.86
2022-11-10T06:19:12.733Z,9.08
2022-11-10T06:22:05.034Z,9.30
2022-11-10T06:24:53.859Z,9.17
2022-11-10T06:27:45.247Z,8.97
2022-11-10T06:30:32.612Z,9.10
2022-11-10T06:33:19.328Z,9.03
2022-11-10T06:36:06.084Z,9.23
2022-11-10T06:38:52.893Z,9.30
2022-11-10T06:41:38.928Z,9.41
2022-11-10T06:44:24.815Z,9.53
2022-11-10T06:47:10.934Z,9.86
2022-11-10T06:49:56.549Z,10.21
2022-11-10T06:52:42.647Z,10.43
2022-11-10T06:55:29.495Z,10.37
2022-11-10T06:58:16.571Z,10.41
2022-11-10T07:01:02.787Z,10.41
2022-11-10T07:04:17.568Z,10.36
2022-11-10T07:06:54.694Z,10.45
2022-11-10T07:09:40.459Z,10.36
2022-11-10T07:12:26.115Z,10.60
2022-11-10T07:15:12.191Z,10.66
2022-11-10T07:17:57.739Z,10.68
2022-11-10T07:20:43.647Z,10.77
2022-11-10T07:23:29.897Z,10.73
2022-11-10T07:26:15.967Z,10.89
2022-11-10T07:29:01.673Z,10.75
2022-11-10T07:31:47.157Z,10.74
2022-11-10T07:34:32.708Z,10.84
2022-11-10T07:37:18.871Z,11.05
2022-11-10T07:40:05.464Z,11.31
2022-11-10T07:42:51.134Z,11.37
2022-11-10T07:45:37.133Z,11.00
2022-11-10T07:48:23.437Z,11.17
2022-11-10T07:51:09.403Z,10.94
2022-11-10T07:53:55.368Z,10.97
2022-11-10T07:56:41.336Z,11.06
2022-11-10T07:59:27.397Z,11.06
2022-11-10T08:02:13.109Z,11.23
2022-11-10T08:04:59.023Z,11.52
2022-11-10T08:07:45.188Z,11.70
2022-11-10T08:10:32.359Z,11.76
2022-11-10T08:13:18.172Z,11.85
2022-11-10T08:16:04.340Z,12.10
2022-11-10T08:18:49.924Z,12.20
2022-11-10T08:21:35.892Z,12.22
2022-11-10T08:24:21.988Z,12.38
2022-11-10T08:27:08.319Z,12.37
2022-11-10T08:29:54.486Z,11.65
2022-11-10T08:32:41.675Z,11.45
2022-11-10T08:35:29.862Z,11.53
2022-11-10T08:38:18.814Z,11.75
2022-11-10T08:41:04.255Z,11.94
2022-11-10T08:43:50.221Z,12.12
2022-11-10T08:46:36.301Z,12.53
2022-11-10T08:49:22.133Z,12.86
2022-11-10T08:52:09.000Z,13.10
2022-11-10T08:54:54.958Z,13.23
2022-11-10T08:57:40.635Z,13.33
2022-11-10T09:00:26.323Z,13.43
2022-11-10T09:03:22.261Z,13.64
2022-11-10T09:06:08.670Z,13.84
2022-11-10T09:08:54.414Z,14.02
2022-11-10T09:11:39.941Z,14.26
2022-11-10T09:14:25.376Z,14.61
2022-11-10T09:17:11.033Z,14.69
2022-11-10T09:19:57.233Z,14.87
2022-11-10T09:22:43.263Z,14.92
2022-11-10T09:25:29.475Z,14.98
2022-11-10T09:28:16.014Z,15.16
2022-11-10T09:31:02.589Z,15.30
2022-11-10T09:33:48.671Z,15.50
2022-11-10T09:36:34.411Z,15.52
2022-11-10T09:39:19.937Z,15.61
2022-11-10T09:42:19.069Z,15.74
2022-11-10T09:45:23.798Z,15.88
2022-11-10T09:48:25.168Z,15.92
2022-11-10T09:51:31.717Z,16.05
2022-11-10T09:55:02.111Z,16.17
2022-11-10T09:57:49.163Z,16.28
2022-11-10T10:00:35.951Z,16.17
2022-11-10T10:03:28.898Z,16.15
2022-11-10T10:06:16.805Z,16.18
2022-11-10T10:09:19.014Z,16.35
2022-11-10T10:12:07.634Z,16.43
2022-11-10T10:15:12.101Z,16.18
2022-11-10T10:18:25.735Z,16.22
2022-11-10T10:21:47.125Z,16.54
2022-11-10T10:24:34.902Z,16.67
2022-11-10T10:27:26.106Z,16.92
2022-11-10T10:30:18.492Z,17.00
2022-11-10T10:33:20.395Z,17.15
2022-11-10T10:36:15.122Z,17.09
2022-11-10T10:39:05.483Z,17.11
2022-11-10T10:41:51.116Z,17.04
2022-11-10T10:44:37.083Z,17.04
2022-11-10T10:47:37.214Z,17.22
2022-11-10T10:50:35.390Z,17.55
2022-11-10T10:53:26.160Z,17.87
2022-11-10T10:56:21.723Z,17.93
2022-11-10T10:59:22.449Z,17.99
2022-11-10T11:02:30.666Z,18.23
2022-11-10T11:05:19.660Z,18.19
2022-11-10T11:08:05.983Z,18.43
2022-11-10T11:10:51.707Z,18.56
2022-11-10T11:13:37.937Z,18.70
2022-11-10T11:16:24.083Z,18.75
2022-11-10T11:19:10.517Z,18.89
2022-11-10T11:22:27.969Z,18.97
2022-11-10T11:25:28.817Z,19.05
2022-11-10T11:28:23.786Z,19.12
2022-11-10T11:31:26.360Z,18.95
2022-11-10T11:34:25.324Z,19.28
2022-11-10T11:37:46.910Z,19.13
2022-11-10T11:40:41.168Z,19.23
2022-11-10T11:43:39.646Z,19.39
2022-11-10T11:46:49.334Z,19.36
2022-11-10T11:49:54.208Z,19.51
2022-11-10T11:53:21.332Z,19.52
2022-11-10T11:56:06.776Z,19.68
2022-11-10T11:59:27.555Z,19.71
2022-11-10T12:02:52.608Z,19.83
2022-11-10T12:05:46.417Z,19.88
2022-11-10T12:08:50.800Z,19.89
2022-11-10T12:11:47.216Z,19.83
2022-11-10T12:15:10.742Z,19.99
2022-11-10T12:18:02.520Z,20.01
2022-11-10T12:21:02.184Z,20.05
2022-11-10T12:24:11.714Z,20.00
2022-11-10T12:27:03.704Z,20.09
2022-11-10T12:30:09.911Z,20.12
2022-11-10T12:32:59.529Z,20.25
2022-11-10T12:35:46.998Z,20.13
2022-11-10T12:39:13.817Z,20.18
2022-11-10T12:42:01.934Z,20.29
2022-11-10T12:45:02.374Z,20.42
2022-11-10T12:47:49.442Z,20.33
2022-11-10T12:50:56.684Z,20.44
2022-11-10T12:53:43.576Z,20.25
2022-11-10T12:56:39.491Z,20.27
2022-11-10T12:59:30.446Z,20.44
2022-11-10T13:02:32.144Z,20.50
2022-11-10T13:05:45.454Z,20.49
2022-11-10T13:08:36.919Z,20.32
2022-11-10T13:11:37.427Z,20.20
2022-11-10T13:14:26.427Z,20.25
2022-11-10T13:17:32.278Z,20.29
2022-11-10T13:20:39.781Z,20.23
2022-11-10T13:23:31.486Z,20.14
2022-11-10T13:26:56.624Z,20.10
2022-11-10T13:29:45.690Z,20.02
2022-11-10T13:32:34.042Z,20.06
2022-11-10T13:35:40.031Z,20.25
2022-11-10T13:38:32.358Z,20.18
2022-11-10T13:41:26.098Z,20.18
2022-11-10T13:44:24.336Z,20.08
2022-11-10T13:47:10.039Z,20.04
2022-11-10T13:50:11.334Z,20.21
2022-11-10T13:53:48.247Z,20.15
2022-11-10T13:57:04.514Z,19.81
2022-11-10T13:59:55.703Z,20.33
2022-11-10T14:02:57.992Z,20.46
2022-11-10T14:06:09.835Z,20.47
2022-11-10T14:09:01.472Z,20.38
2022-11-10T14:11:51.749Z,20.10
2022-11-10T14:14:47.847Z,19.97
2022-11-10T14:17:39.805Z,19.86
2022-11-10T14:20:41.828Z,19.71
2022-11-10T14:23:36.980Z,19.66
2022-11-10T14:26:46.741Z,19.67
2022-11-10T14:29:41.177Z,19.52
2022-11-10T14:32:27.243Z,19.44
2022-11-10T14:35:22.909Z,19.27
2022-11-10T14:38:21.859Z,19.19
2022-11-10T14:41:17.598Z,18.96
2022-11-10T14:44:11.474Z,19.01
2022-11-10T14:47:12.902Z,18.97
2022-11-10T14:50:18.873Z,18.97
2022-11-10T14:53:16.168Z,18.93
2022-11-10T14:56:04.754Z,18.89
2022-11-10T14:58:51.443Z,18.84
2022-11-10T15:01:39.702Z,18.79
2022-11-10T15:04:31.945Z,18.66
2022-11-10T15:07:19.264Z,18.23
2022-11-10T15:10:13.941Z,18.43
2022-11-10T15:13:14.738Z,18.46
2022-11-10T15:16:25.740Z,18.39
2022-11-10T15:19:20.928Z,18.32
2022-11-10T15:22:12.815Z,18.22
2022-11-10T15:25:11.083Z,18.10
2022-11-10T15:28:02.639Z,18.10
2022-11-10T15:30:54.707Z,17.99
2022-11-10T15:33:47.122Z,17.83
2022-11-10T15:36:40.927Z,17.71
2022-11-10T15:39:28.113Z,17.61
2022-11-10T15:42:22.299Z,17.43
2022-11-10T15:45:08.122Z,17.25
2022-11-10T15:47:53.835Z,17.25
2022-11-10T15:50:42.303Z,17.18
2022-11-10T15:53:40.773Z,17.22
2022-11-10T15:56:26.739Z,17.05
2022-11-10T15:59:12.772Z,16.99
2022-11-10T16:01:59.688Z,16.97
2022-11-10T16:04:46.128Z,16.96
2022-11-10T16:07:32.341Z,16.96
2022-11-10T16:10:18.156Z,16.87
2022-11-10T16:13:04.154Z,16.79
2022-11-10T16:15:50.123Z,16.75
2022-11-10T16:18:39.964Z,16.70
2022-11-10T16:21:29.587Z,16.61
2022-11-10T16:24:15.242Z,16.56
2022-11-10T16:27:00.921Z,16.53
2022-11-10T16:29:46.732Z,16.49
2022-11-10T16:32:32.413Z,16.32
2022-11-10T16:35:18.179Z,16.37
2022-11-10T16:38:28.616Z,16.34
2022-11-10T16:41:17.136Z,16.25
2022-11-10T16:44:02.813Z,16.06
2022-11-10T16:46:54.360Z,16.06
2022-11-10T16:49:55.436Z,15.93
2022-11-10T16:52:40.917Z,15.90
2022-11-10T16:55:26.538Z,15.80
2022-11-10T16:58:12.167Z,15.66
2022-11-10T17:01:00.892Z,15.47
2022-11-10T17:03:52.701Z,15.55
2022-11-10T17:06:38.313Z,15.59
2022-11-10T17:09:28.648Z,15.53
2022-11-10T17:12:14.945Z,15.48
2022-11-10T17:15:00.611Z,15.36
2022-11-10T17:17:48.889Z,15.32
2022-11-10T17:20:38.062Z,15.14
2022-11-10T17:23:26.405Z,15.10
2022-11-10T17:26:16.295Z,15.02
2022-11-10T17:29:02.313Z,15.11
2022-11-10T17:31:50.436Z,15.05
2022-11-10T17:34:36.531Z,15.03
2022-11-10T17:37:22.430Z,14.85
2022-11-10T17:40:18.890Z,14.89
2022-11-10T17:43:04.545Z,14.69
2022-11-10T17:45:50.202Z,14.53
2022-11-10T17:48:35.774Z,14.53
2022-11-10T17:51:22.796Z,14.42
2022-11-10T17:54:13.756Z,14.33
2022-11-10T17:56:59.708Z,14.31
2022-11-10T17:59:45.247Z,14.34
2022-11-10T18:02:31.510Z,14.29
2022-11-10T18:05:18.640Z,14.32
2022-11-10T18:08:04.736Z,14.26
2022-11-10T18:10:52.270Z,14.23
2022-11-10T18:13:41.965Z,14.20
2022-11-10T18:16:27.906Z,14.10
2022-11-10T18:19:13.258Z,14.09
2022-11-10T18:21:59.195Z,14.05
2022-11-10T18:24:49.911Z,14.15
2022-11-10T18:27:36.259Z,14.17
2022-11-10T18:30:22.091Z,14.09
2022-11-10T18:33:08.047Z,14.02
2022-11-10T18:35:59.216Z,13.85
2022-11-10T18:38:45.697Z,13.64
2022-11-10T18:41:50.947Z,13.81
2022-11-10T18:44:37.637Z,13.67
2022-11-10T18:47:23.551Z,13.60
2022-11-10T18:50:09.915Z,13.59
2022-11-10T18:52:55.557Z,13.56
2022-11-10T18:55:45.430Z,13.57
2022-11-10T18:58:31.383Z,13.40
2022-11-10T19:01:17.537Z,13.44
2022-11-10T19:04:03.485Z,13.49
2022-11-10T19:06:49.203Z,13.47
2022-11-10T19:09:34.852Z,13.36
2022-11-10T19:12:26.307Z,13.26
2022-11-10T19:15:12.563Z,13.30
2022-11-10T19:17:58.519Z,13.27
2022-11-10T19:20:44.248Z,13.11
2022-11-10T19:23:29.691Z,13.28
2022-11-10T19:26:22.169Z,13.19
2022-11-10T19:29:09.047Z,13.08
2022-11-10T19:31:54.851Z,13.03
2022-11-10T19:34:40.588Z,12.45
2022-11-10T19:37:29.782Z,12.58
2022-11-10T19:40:19.400Z,12.55
2022-11-10T19:43:05.005Z,12.76
2022-11-10T19:45:51.293Z,12.80
2022-11-10T19:48:37.430Z,12.79
2022-11-10T19:51:24.862Z,12.79
2022-11-10T19:54:13.446Z,12.75
2022-11-10T19:56:59.559Z,12.75
2022-11-10T19:59:45.341Z,12.74
2022-11-10T20:02:31.269Z,12.74
2022-11-10T20:05:17.503Z,12.73
2022-11-10T20:08:11.903Z,12.68
2022-11-10T20:11:17.673Z,12.66
2022-11-10T20:14:05.758Z,12.68
2022-11-10T20:16:51.228Z,12.63
2022-11-10T20:19:40.735Z,12.52
2022-11-10T20:22:27.558Z,12.57
2022-11-10T20:25:13.139Z,12.55
2022-11-10T20:28:06.159Z,12.58
2022-11-10T20:30:56.116Z,12.62
2022-11-10T20:33:42.517Z,12.61
2022-11-10T20:36:30.964Z,12.63
2022-11-10T20:39:17.992Z,12.39
2022-11-10T20:42:04.484Z,12.45
2022-11-10T20:44:50.077Z,12.49
2022-11-10T20:47:35.891Z,12.37
2022-11-10T20:50:24.495Z,12.19
2022-11-10T20:53:10.684Z,12.05
2022-11-10T20:56:02.261Z,12.12
2022-11-10T20:58:49.215Z,12.28
2022-11-10T21:01:35.506Z,12.30
2022-11-10T21:04:22.032Z,12.37
2022-11-10T21:07:07.946Z,12.40
2022-11-10T21:09:54.557Z,12.36
2022-11-10T21:12:49.454Z,12.42
2022-11-10T21:15:39.628Z,12.46
2022-11-10T21:18:34.708Z,12.51
2022-11-10T21:21:23.574Z,12.51
2022-11-10T21:24:10.260Z,12.49
2022-11-10T21:26:57.792Z,12.37
2022-11-10T21:29:43.504Z,12.45
2022-11-10T21:32:29.107Z,12.47
2022-11-10T21:35:15.857Z,12.56
2022-11-10T21:38:01.718Z,12.60
2022-11-10T21:40:47.582Z,12.47
2022-11-10T21:43:33.213Z,12.56
2022-11-10T21:46:19.002Z,12.52
2022-11-10T21:49:07.909Z,12.64
2022-11-10T21:51:54.431Z,12.74
2022-11-10T21:54:40.447Z,12.65
2022-11-10T21:57:26.389Z,12.73
2022-11-10T22:00:13.669Z,12.85
2022-11-10T22:03:01.869Z,12.83
2022-11-10T22:05:47.333Z,12.78
2022-11-10T22:08:33.850Z,12.76
2022-11-10T22:11:39.754Z,12.76
2022-11-10T22:14:43.560Z,12.66
2022-11-10T22:17:47.377Z,12.69
2022-11-10T22:20:33.055Z,12.65
2022-11-10T22:23:19.051Z,12.79
2022-11-10T22:26:04.512Z,12.86
2022-11-10T22:28:50.004Z,12.64
2022-11-10T22:31:35.868Z,12.84
2022-11-10T22:34:21.947Z,12.89
2022-11-10T22:37:07.893Z,12.93
2022-11-10T22:40:12.584Z,12.92
2022-11-10T22:43:16.843Z,12.95
2022-11-10T22:46:02.748Z,12.99
2022-11-10T22:48:48.734Z,12.97
2022-11-10T22:51:35.782Z,12.99
2022-11-10T22:54:23.594Z,13.04
2022-11-10T22:57:09.646Z,13.09
2022-11-10T22:59:55.164Z,13.05
2022-11-10T23:02:41.313Z,13.05
2022-11-10T23:05:26.850Z,12.96
2022-11-10T23:08:12.357Z,13.13
2022-11-10T23:11:03.722Z,13.17
2022-11-10T23:13:51.042Z,13.19
2022-11-10T23:16:36.924Z,12.94
2022-11-10T23:19:22.465Z,13.13
2022-11-10T23:22:08.259Z,13.09
2022-11-10T23:24:57.065Z,13.05
2022-11-10T23:27:43.274Z,12.95
2022-11-10T23:30:29.126Z,12.97
2022-11-10T23:33:14.588Z,13.06
2022-11-10T23:36:00.771Z,13.06
2022-11-10T23:38:49.095Z,13.00
2022-11-10T23:41:34.940Z,12.90
2022-11-10T23:44:20.961Z,12.98
2022-11-10T23:47:07.143Z,12.97
2022-11-10T23:49:56.043Z,12.96
2022-11-10T23:52:41.738Z,13.05
2022-11-10T23:55:27.978Z,13.07
2022-11-10T23:58:14.151Z,13.08
